Terminal Aerodrome Forecast
Issued by NWS

Home | Current Version | Previous Version | Text Only | Print | Product List | Glossary Off
Versions: 1 2 3 4 5 6 7 8 9 10 11 12 13 14 15 16 17 18 19 20 21 22 23

000
FTUS43 KGRB 171700
TAFCWA
TAF
KCWA 171734Z 1718/1818 31009G17KT P6SM -SN SCT020 OVC070
      TEMPO 1718/1719 BKN025
     FM172300 33005KT P6SM BKN025
     FM180700 35003KT P6SM SCT025=

USA.gov is the U.S. government's official web portal to all federal, state and local government web resources and services.